createdAt,value
2023-04-21T00:00:35.115Z,11.90
2023-04-21T00:03:03.532Z,11.90
2023-04-21T00:05:31.356Z,11.80
2023-04-21T00:07:58.984Z,11.80
2023-04-21T00:10:26.384Z,11.70
2023-04-21T00:12:53.868Z,11.80
2023-04-21T00:15:21.267Z,11.70
2023-04-21T00:17:48.694Z,11.70
2023-04-21T00:20:16.087Z,11.70
2023-04-21T00:22:43.736Z,11.70
2023-04-21T00:25:11.195Z,11.60
2023-04-21T00:27:38.642Z,11.70
2023-04-21T00:30:06.917Z,11.70
2023-04-21T00:32:34.523Z,11.60
2023-04-21T00:35:01.921Z,11.70
2023-04-21T00:37:29.404Z,11.70
2023-04-21T00:39:57.131Z,11.70
2023-04-21T00:42:25.750Z,11.80
2023-04-21T00:44:53.360Z,11.80
2023-04-21T00:47:20.980Z,11.90
2023-04-21T00:49:51.173Z,11.90
2023-04-21T00:52:19.115Z,12.00
2023-04-21T00:54:46.900Z,12.10
2023-04-21T00:57:16.948Z,12.10
2023-04-21T00:59:44.497Z,12.20
2023-04-21T01:02:12.269Z,12.20
2023-04-21T01:04:40.287Z,12.20
2023-04-21T01:07:08.657Z,12.20
2023-04-21T01:09:36.171Z,12.30
2023-04-21T01:12:06.426Z,12.40
2023-04-21T01:14:36.322Z,12.40
2023-04-21T01:17:07.988Z,12.40
2023-04-21T01:19:42.021Z,12.50
2023-04-21T01:22:15.220Z,12.50
2023-04-21T01:24:44.805Z,12.60
2023-04-21T01:27:21.878Z,12.60
2023-04-21T01:29:53.372Z,12.60
2023-04-21T01:32:29.100Z,12.70
2023-04-21T01:34:57.980Z,12.70
2023-04-21T01:37:29.087Z,12.70
2023-04-21T01:39:58.315Z,12.80
2023-04-21T01:42:28.261Z,12.70
2023-04-21T01:44:57.203Z,12.80
2023-04-21T01:47:25.509Z,12.80
2023-04-21T01:49:53.694Z,12.80
2023-04-21T01:52:21.622Z,12.80
2023-04-21T01:54:49.334Z,12.80
2023-04-21T01:57:17.781Z,12.80
2023-04-21T01:59:45.852Z,12.80
2023-04-21T02:02:13.426Z,12.80
2023-04-21T02:04:41.019Z,12.80
2023-04-21T02:07:08.552Z,12.80
2023-04-21T02:09:36.560Z,12.90
2023-04-21T02:12:04.256Z,12.90
2023-04-21T02:14:31.942Z,13.00
2023-04-21T02:16:59.899Z,13.00
2023-04-21T02:19:28.793Z,12.90
2023-04-21T02:21:56.294Z,12.90
2023-04-21T02:24:23.796Z,12.90
2023-04-21T02:26:53.721Z,12.90
2023-04-21T02:29:21.270Z,12.90
2023-04-21T02:32:00.696Z,13.00
2023-04-21T02:34:30.764Z,13.00
2023-04-21T02:36:59.367Z,13.00
2023-04-21T02:39:27.083Z,13.00
2023-04-21T02:41:54.586Z,13.00
2023-04-21T02:44:22.040Z,13.10
2023-04-21T02:46:49.528Z,13.10
2023-04-21T02:49:17.199Z,13.10
2023-04-21T02:51:44.819Z,13.00
2023-04-21T02:54:12.230Z,12.90
2023-04-21T02:56:39.738Z,12.90
2023-04-21T02:59:08.612Z,12.90
2023-04-21T03:01:36.121Z,12.90
2023-04-21T03:04:03.679Z,12.90
2023-04-21T03:06:33.504Z,12.90
2023-04-21T03:09:01.404Z,12.90
2023-04-21T03:11:28.835Z,12.90
2023-04-21T03:13:56.215Z,12.90
2023-04-21T03:16:23.680Z,12.90
2023-04-21T03:18:51.209Z,12.90
2023-04-21T03:21:19.308Z,12.80
2023-04-21T03:23:47.065Z,12.80
2023-04-21T03:26:15.051Z,12.80
2023-04-21T03:28:42.512Z,12.80
2023-04-21T03:31:09.966Z,12.80
2023-04-21T03:33:37.671Z,12.80
2023-04-21T03:36:05.398Z,12.70
2023-04-21T03:38:32.797Z,12.70
2023-04-21T03:41:00.275Z,12.70
2023-04-21T03:43:27.693Z,12.70
2023-04-21T03:45:56.692Z,12.70
2023-04-21T03:48:25.166Z,12.70
2023-04-21T03:50:52.536Z,12.70
2023-04-21T03:53:19.903Z,12.70
2023-04-21T03:55:48.935Z,12.80
2023-04-21T03:58:16.987Z,12.80
2023-04-21T04:00:44.412Z,12.70
2023-04-21T04:03:11.984Z,12.70
2023-04-21T04:05:39.533Z,12.60
2023-04-21T04:08:07.824Z,12.60
2023-04-21T04:10:35.247Z,12.50
2023-04-21T04:13:02.655Z,12.50
2023-04-21T04:15:30.062Z,12.40
2023-04-21T04:17:57.541Z,12.40
2023-04-21T04:20:25.216Z,12.40
2023-04-21T04:22:52.587Z,12.30
2023-04-21T04:25:19.972Z,12.30
2023-04-21T04:27:49.515Z,12.30
2023-04-21T04:30:17.109Z,12.30
2023-04-21T04:32:44.513Z,12.30
2023-04-21T04:35:13.000Z,12.30
2023-04-21T04:37:41.268Z,12.30
2023-04-21T04:40:10.487Z,12.30
2023-04-21T04:42:40.163Z,12.30
2023-04-21T04:45:08.614Z,12.30
2023-04-21T04:47:36.182Z,12.30
2023-04-21T04:50:04.695Z,12.40
2023-04-21T04:52:32.432Z,12.50
2023-04-21T04:54:59.819Z,12.50
2023-04-21T04:57:27.189Z,12.60
2023-04-21T04:59:57.793Z,12.70
2023-04-21T05:02:25.545Z,12.80
2023-04-21T05:04:53.343Z,12.80
2023-04-21T05:07:20.904Z,12.90
2023-04-21T05:09:48.292Z,13.00
2023-04-21T05:12:15.649Z,13.00
2023-04-21T05:14:43.096Z,13.10
2023-04-21T05:17:10.835Z,13.10
2023-04-21T05:19:38.387Z,13.20
2023-04-21T05:22:08.502Z,13.20
2023-04-21T05:24:36.034Z,13.20
2023-04-21T05:27:03.737Z,13.20
2023-04-21T05:29:31.170Z,13.30
2023-04-21T05:31:58.717Z,13.30
2023-04-21T05:34:26.190Z,13.30
2023-04-21T05:36:53.561Z,13.30
2023-04-21T05:39:21.047Z,13.40
2023-04-21T05:41:48.512Z,13.40
2023-04-21T05:44:18.996Z,13.50
2023-04-21T05:46:46.746Z,13.50
2023-04-21T05:49:14.541Z,13.50
2023-04-21T05:51:42.912Z,13.70
2023-04-21T05:54:10.381Z,13.80
2023-04-21T05:56:37.819Z,13.90
2023-04-21T05:59:07.037Z,14.10
2023-04-21T06:01:34.470Z,14.70
2023-04-21T06:04:02.131Z,15.30
2023-04-21T06:06:29.719Z,15.90
2023-04-21T06:08:57.255Z,16.40
2023-04-21T06:11:24.650Z,16.80
2023-04-21T06:13:54.425Z,17.20
2023-04-21T06:16:21.836Z,17.70
2023-04-21T06:18:49.278Z,18.70
2023-04-21T06:21:16.697Z,19.10
2023-04-21T06:23:44.130Z,18.90
2023-04-21T06:26:11.540Z,19.00
2023-04-21T06:28:39.503Z,19.20
2023-04-21T06:31:08.854Z,19.40
2023-04-21T06:33:36.749Z,19.60
2023-04-21T06:36:04.448Z,19.30
2023-04-21T06:38:31.860Z,19.70
2023-04-21T06:40:59.516Z,19.30
2023-04-21T06:43:26.956Z,19.60
2023-04-21T06:45:54.356Z,19.80
2023-04-21T06:48:21.804Z,20.10
2023-04-21T06:50:50.111Z,20.60
2023-04-21T06:53:18.232Z,21.00
2023-04-21T06:55:45.830Z,21.80
2023-04-21T06:58:13.399Z,22.60
2023-04-21T07:00:41.199Z,23.50
2023-04-21T07:03:08.794Z,24.50
2023-04-21T07:05:36.275Z,24.10
2023-04-21T07:08:03.772Z,23.00
2023-04-21T07:10:31.999Z,21.80
2023-04-21T07:12:59.475Z,22.20
2023-04-21T07:15:26.982Z,22.90
2023-04-21T07:17:54.994Z,22.60
2023-04-21T07:20:22.455Z,21.50
2023-04-21T07:22:49.925Z,21.10
2023-04-21T07:25:17.605Z,21.20
2023-04-21T07:27:44.990Z,22.00
2023-04-21T07:30:12.732Z,23.10
2023-04-21T07:32:40.525Z,24.20
2023-04-21T07:35:08.317Z,23.70
2023-04-21T07:37:35.785Z,23.70
2023-04-21T07:40:04.037Z,24.50
2023-04-21T07:42:31.464Z,24.50
2023-04-21T07:45:01.156Z,24.90
2023-04-21T07:47:29.283Z,25.00
2023-04-21T07:49:57.090Z,25.30
2023-04-21T07:52:26.031Z,26.30
2023-04-21T07:54:56.028Z,28.00
2023-04-21T07:57:26.215Z,27.30
2023-04-21T07:59:54.930Z,26.70
2023-04-21T08:02:24.039Z,26.80
2023-04-21T08:04:53.865Z,25.80
2023-04-21T08:07:23.676Z,24.30
2023-04-21T08:09:52.791Z,23.10
2023-04-21T08:12:22.056Z,22.70
2023-04-21T08:14:51.654Z,22.10
2023-04-21T08:17:20.687Z,22.10
2023-04-21T08:19:50.716Z,22.00
2023-04-21T08:22:19.538Z,21.40
2023-04-21T08:24:49.425Z,21.00
2023-04-21T08:27:19.282Z,20.80
2023-04-21T08:29:48.373Z,20.40
2023-04-21T08:32:24.596Z,20.20
2023-04-21T08:34:55.264Z,20.50
2023-04-21T08:37:24.644Z,20.60
2023-04-21T08:39:55.385Z,20.60
2023-04-21T08:42:25.305Z,20.80
2023-04-21T08:44:54.342Z,21.20
2023-04-21T08:47:27.311Z,21.60
2023-04-21T08:49:58.200Z,21.40
2023-04-21T08:52:28.113Z,21.30
2023-04-21T08:54:58.580Z,20.80
2023-04-21T08:57:28.797Z,20.80
2023-04-21T08:59:58.073Z,21.30
2023-04-21T09:02:27.885Z,21.10
2023-04-21T09:04:57.082Z,20.80
2023-04-21T09:07:33.629Z,20.60
2023-04-21T09:10:03.609Z,20.30
2023-04-21T09:12:33.573Z,19.90
2023-04-21T09:15:07.362Z,19.70
2023-04-21T09:17:39.359Z,19.40
2023-04-21T09:20:21.380Z,19.10
2023-04-21T09:22:51.426Z,19.00
2023-04-21T09:25:22.475Z,18.90
2023-04-21T09:27:51.464Z,19.00
2023-04-21T09:30:23.191Z,19.00
2023-04-21T09:32:57.184Z,19.20
2023-04-21T09:35:37.051Z,19.40
2023-04-21T09:38:11.004Z,19.40
2023-04-21T09:40:40.994Z,19.40
2023-04-21T09:43:09.701Z,19.50
2023-04-21T09:45:40.532Z,19.60
2023-04-21T09:48:10.096Z,19.60
2023-04-21T09:53:14.064Z,19.80
2023-04-21T09:55:42.420Z,20.20
2023-04-21T09:58:16.438Z,20.70
2023-04-21T10:00:44.448Z,21.20
2023-04-21T10:03:13.935Z,21.50
2023-04-21T10:05:43.021Z,21.40
2023-04-21T10:08:12.313Z,21.80
2023-04-21T10:10:40.470Z,21.60
2023-04-21T10:13:14.622Z,21.80
2023-04-21T10:15:42.220Z,22.60
2023-04-21T10:18:23.632Z,23.60
2023-04-21T10:20:58.038Z,24.30
2023-04-21T10:23:32.949Z,23.90
2023-04-21T10:26:15.089Z,23.90
2023-04-21T10:28:46.941Z,24.30
2023-04-21T10:31:20.347Z,24.40
2023-04-21T10:34:07.221Z,24.00
2023-04-21T10:36:35.938Z,23.80
2023-04-21T10:39:04.424Z,23.90
2023-04-21T10:41:38.794Z,24.20
2023-04-21T10:44:16.872Z,24.60
2023-04-21T10:46:49.700Z,24.70
2023-04-21T10:49:30.666Z,25.10
2023-04-21T10:52:02.455Z,24.90
2023-04-21T10:54:42.116Z,24.70
2023-04-21T10:57:12.053Z,24.40
2023-04-21T10:59:40.332Z,24.20
2023-04-21T11:02:10.889Z,23.80
2023-04-21T11:04:45.365Z,23.30
2023-04-21T11:07:29.332Z,22.80
2023-04-21T11:10:01.003Z,21.90
2023-04-21T11:12:47.807Z,21.20
2023-04-21T11:15:15.910Z,20.70
2023-04-21T11:17:47.180Z,20.20
2023-04-21T11:20:14.877Z,20.10
2023-04-21T11:22:42.443Z,20.10
2023-04-21T11:25:18.461Z,20.20
2023-04-21T11:27:56.476Z,20.10
2023-04-21T11:30:34.504Z,19.90
2023-04-21T11:33:02.875Z,19.70
2023-04-21T11:35:32.275Z,19.80
2023-04-21T11:38:05.843Z,19.80
2023-04-21T11:40:46.331Z,19.70
2023-04-21T11:43:13.924Z,19.70
2023-04-21T11:45:42.012Z,19.80
2023-04-21T11:48:16.751Z,19.70
2023-04-21T11:50:49.072Z,19.80
2023-04-21T11:53:19.009Z,19.80
2023-04-21T11:55:46.615Z,19.90
2023-04-21T11:58:16.416Z,19.70
2023-04-21T12:00:47.013Z,19.60
2023-04-21T12:03:14.850Z,19.70
2023-04-21T12:05:42.638Z,19.70
2023-04-21T12:08:16.577Z,19.80
2023-04-21T12:10:47.260Z,19.80
2023-04-21T12:13:23.485Z,19.80
2023-04-21T12:15:51.103Z,20.00
2023-04-21T12:18:18.699Z,20.10
2023-04-21T12:20:51.614Z,20.20
2023-04-21T12:23:24.766Z,19.90
2023-04-21T12:25:52.344Z,19.90
2023-04-21T12:28:21.313Z,20.10
2023-04-21T12:30:49.518Z,20.20
2023-04-21T12:33:17.169Z,20.40
2023-04-21T12:35:44.666Z,20.40
2023-04-21T12:38:12.251Z,20.40
2023-04-21T12:40:39.709Z,20.40
2023-04-21T12:43:07.949Z,20.40
2023-04-21T12:45:36.216Z,20.30
2023-04-21T12:48:05.051Z,20.20
2023-04-21T12:50:32.803Z,20.30
2023-04-21T12:53:00.587Z,20.30
2023-04-21T12:55:28.218Z,20.30
2023-04-21T12:57:55.780Z,20.30
2023-04-21T13:00:23.280Z,20.30
2023-04-21T13:02:50.856Z,20.20
2023-04-21T13:05:18.575Z,20.20
2023-04-21T13:07:46.128Z,20.20
2023-04-21T13:10:13.812Z,20.10
2023-04-21T13:12:42.052Z,20.00
2023-04-21T13:15:10.826Z,20.00
2023-04-21T13:17:38.377Z,20.10
2023-04-21T13:20:07.298Z,20.20
2023-04-21T13:22:35.712Z,20.20
2023-04-21T13:25:04.525Z,20.30
2023-04-21T13:27:33.561Z,20.30
2023-04-21T13:30:02.964Z,20.40
2023-04-21T13:32:30.604Z,20.60
2023-04-21T13:34:58.370Z,20.70
2023-04-21T13:37:26.377Z,20.60
2023-04-21T13:39:53.996Z,20.60
2023-04-21T13:42:21.568Z,20.40
2023-04-21T13:44:49.016Z,20.20
2023-04-21T13:47:17.363Z,20.20
2023-04-21T13:49:45.968Z,20.00
2023-04-21T13:52:13.443Z,19.80
2023-04-21T13:54:41.085Z,19.90
2023-04-21T13:57:08.970Z,20.00
2023-04-21T13:59:36.563Z,19.90
2023-04-21T14:02:04.107Z,19.80
2023-04-21T14:04:31.977Z,19.60
2023-04-21T14:06:59.840Z,19.50
2023-04-21T14:09:27.885Z,19.50
2023-04-21T14:11:55.754Z,19.40
2023-04-21T14:14:35.540Z,19.20
2023-04-21T14:17:05.895Z,19.10
2023-04-21T14:19:33.808Z,19.10
2023-04-21T14:22:01.640Z,18.90
2023-04-21T14:24:30.290Z,18.90
2023-04-21T14:26:58.054Z,18.70
2023-04-21T14:29:25.940Z,18.60
2023-04-21T14:31:57.724Z,18.70
2023-04-21T14:34:28.574Z,18.70
2023-04-21T14:36:56.843Z,18.70
2023-04-21T14:39:24.412Z,18.80
2023-04-21T14:41:52.264Z,19.00
2023-04-21T14:44:26.197Z,19.30
2023-04-21T14:47:08.344Z,19.30
2023-04-21T14:49:40.703Z,19.40
2023-04-21T14:52:08.358Z,19.50
2023-04-21T14:54:35.945Z,19.50
2023-04-21T14:57:18.924Z,19.50
2023-04-21T14:59:47.361Z,19.60
2023-04-21T15:02:15.527Z,19.70
2023-04-21T15:04:43.727Z,19.70
2023-04-21T15:07:11.406Z,19.60
2023-04-21T15:09:45.942Z,19.50
2023-04-21T15:12:13.774Z,19.60
2023-04-21T15:14:41.447Z,19.60
2023-04-21T15:17:09.215Z,19.70
2023-04-21T15:19:37.450Z,19.80
2023-04-21T15:22:05.523Z,19.90
2023-04-21T15:24:33.013Z,20.00
2023-04-21T15:27:01.359Z,20.20
2023-04-21T15:29:29.029Z,20.20
2023-04-21T15:31:56.729Z,20.30
2023-04-21T15:34:24.188Z,20.20
2023-04-21T15:36:51.748Z,20.30
2023-04-21T15:39:19.370Z,20.30
2023-04-21T15:41:47.671Z,20.30
2023-04-21T15:44:15.669Z,20.30
2023-04-21T15:46:43.274Z,20.40
2023-04-21T15:49:10.750Z,20.40
2023-04-21T15:51:38.359Z,20.50
2023-04-21T15:54:05.902Z,20.50
2023-04-21T15:56:33.771Z,20.50
2023-04-21T15:59:01.370Z,20.50
2023-04-21T16:01:28.863Z,20.40
2023-04-21T16:03:56.484Z,20.30
2023-04-21T16:06:25.291Z,20.30
2023-04-21T16:08:53.172Z,20.30
2023-04-21T16:11:21.050Z,20.30
2023-04-21T16:13:49.568Z,20.30
2023-04-21T16:16:17.165Z,20.20
2023-04-21T16:18:44.658Z,20.20
2023-04-21T16:21:12.297Z,20.10
2023-04-21T16:23:40.039Z,20.00
2023-04-21T16:26:09.080Z,19.90
2023-04-21T16:28:36.620Z,19.80
2023-04-21T16:31:04.208Z,19.70
2023-04-21T16:33:31.915Z,19.60
2023-04-21T16:35:59.411Z,19.60
2023-04-21T16:38:26.815Z,19.50
2023-04-21T16:40:54.393Z,19.40
2023-04-21T16:43:21.870Z,19.40
2023-04-21T16:45:49.691Z,19.30
2023-04-21T16:48:17.173Z,19.20
2023-04-21T16:50:45.634Z,19.20
2023-04-21T16:53:13.157Z,19.10
2023-04-21T16:55:40.616Z,19.10
2023-04-21T16:58:08.554Z,19.00
2023-04-21T17:00:37.472Z,19.00
2023-04-21T17:03:05.073Z,18.90
2023-04-21T17:05:32.692Z,18.90
2023-04-21T17:08:00.280Z,18.80
2023-04-21T17:10:27.740Z,18.80
2023-04-21T17:12:55.197Z,18.80
2023-04-21T17:15:22.690Z,18.70
2023-04-21T17:17:51.286Z,18.60
2023-04-21T17:20:18.786Z,18.60
2023-04-21T17:22:46.404Z,18.50
2023-04-21T17:25:13.875Z,18.60
2023-04-21T17:27:42.116Z,18.50
2023-04-21T17:30:10.368Z,18.40
2023-04-21T17:32:38.074Z,18.30
2023-04-21T17:35:06.033Z,18.30
2023-04-21T17:37:34.159Z,18.10
2023-04-21T17:40:03.086Z,18.10
2023-04-21T17:42:31.183Z,18.00
2023-04-21T17:44:58.688Z,17.90
2023-04-21T17:47:26.399Z,17.70
2023-04-21T17:49:54.046Z,17.50
2023-04-21T17:52:21.614Z,17.40
2023-04-21T17:54:49.095Z,17.30
2023-04-21T17:57:17.982Z,17.20
2023-04-21T17:59:46.131Z,17.10
2023-04-21T18:02:13.879Z,17.10
2023-04-21T18:04:41.630Z,17.00
2023-04-21T18:07:09.707Z,16.90
2023-04-21T18:09:37.267Z,16.90
2023-04-21T18:12:04.776Z,16.90
2023-04-21T18:14:32.685Z,16.90
2023-04-21T18:17:00.702Z,16.80
2023-04-21T18:19:28.152Z,16.90
2023-04-21T18:21:55.758Z,16.80
2023-04-21T18:24:23.163Z,16.70
2023-04-21T18:26:51.363Z,16.60
2023-04-21T18:29:19.607Z,16.50
2023-04-21T18:31:47.316Z,16.40
2023-04-21T18:34:15.146Z,16.30
2023-04-21T18:36:44.273Z,16.30
2023-04-21T18:39:12.004Z,16.30
2023-04-21T18:41:40.388Z,16.30
2023-04-21T18:44:07.947Z,16.20
2023-04-21T18:46:35.693Z,16.10
2023-04-21T18:49:03.238Z,16.20
2023-04-21T18:51:31.663Z,16.10
2023-04-21T18:53:59.409Z,16.10
2023-04-21T18:56:27.138Z,16.10
2023-04-21T18:58:54.788Z,16.10
2023-04-21T19:01:22.309Z,16.00
2023-04-21T19:03:49.977Z,16.00
2023-04-21T19:06:17.583Z,15.90
2023-04-21T19:08:45.021Z,15.80
2023-04-21T19:11:15.537Z,15.80
2023-04-21T19:13:43.164Z,15.80
2023-04-21T19:16:14.623Z,15.80
2023-04-21T19:18:42.456Z,15.90
2023-04-21T19:21:13.360Z,15.80
2023-04-21T19:23:41.710Z,15.70
2023-04-21T19:26:11.898Z,15.70
2023-04-21T19:28:40.635Z,15.60
2023-04-21T19:31:08.388Z,15.70
2023-04-21T19:33:35.757Z,15.80
2023-04-21T19:36:03.558Z,15.80
2023-04-21T19:38:32.327Z,15.80
2023-04-21T19:40:59.761Z,15.80
2023-04-21T19:43:27.435Z,15.70
2023-04-21T19:45:54.878Z,15.50
2023-04-21T19:48:22.945Z,15.40
2023-04-21T19:50:50.427Z,15.40
2023-04-21T19:53:18.510Z,15.30
2023-04-21T19:55:46.756Z,15.20
2023-04-21T19:58:22.062Z,15.20
2023-04-21T20:00:56.028Z,15.20
2023-04-21T20:03:24.523Z,15.20
2023-04-21T20:05:52.009Z,15.10
2023-04-21T20:08:19.426Z,15.10
2023-04-21T20:10:46.914Z,15.10
2023-04-21T20:13:14.325Z,15.10
2023-04-21T20:15:42.082Z,15.00
2023-04-21T20:18:09.678Z,15.00
2023-04-21T20:20:40.734Z,15.00
2023-04-21T20:23:08.150Z,14.90
2023-04-21T20:25:35.752Z,14.90
2023-04-21T20:28:03.328Z,14.90
2023-04-21T20:30:30.699Z,14.90
2023-04-21T20:32:58.093Z,14.80
2023-04-21T20:35:26.391Z,14.80
2023-04-21T20:37:53.964Z,14.80
2023-04-21T20:40:21.793Z,14.80
2023-04-21T20:42:49.396Z,14.80
2023-04-21T20:45:17.689Z,14.80
2023-04-21T20:47:45.043Z,14.80
2023-04-21T20:50:13.454Z,14.70
2023-04-21T20:52:41.006Z,14.70
2023-04-21T20:55:09.300Z,14.70
2023-04-21T20:57:36.797Z,14.70
2023-04-21T21:00:09.616Z,14.60
2023-04-21T21:02:37.750Z,14.60
2023-04-21T21:05:05.493Z,14.60
2023-04-21T21:07:33.120Z,14.60
2023-04-21T21:10:00.590Z,14.50
2023-04-21T21:12:27.958Z,14.50
2023-04-21T21:14:55.401Z,14.40
2023-04-21T21:17:22.823Z,14.40
2023-04-21T21:19:50.228Z,14.40
2023-04-21T21:22:17.634Z,14.40
2023-04-21T21:24:45.096Z,14.30
2023-04-21T21:27:12.843Z,14.30
2023-04-21T21:29:40.659Z,14.30
2023-04-21T21:32:08.471Z,14.30
2023-04-21T21:34:35.939Z,14.20
2023-04-21T21:37:03.412Z,14.20
2023-04-21T21:39:30.856Z,14.30
2023-04-21T21:41:59.140Z,14.30
2023-04-21T21:44:26.651Z,14.30
2023-04-21T21:46:54.109Z,14.40
2023-04-21T21:49:21.994Z,14.40
2023-04-21T21:51:49.797Z,14.40
2023-04-21T21:54:17.222Z,14.40
2023-04-21T21:56:44.930Z,14.30
2023-04-21T21:59:12.617Z,14.20
2023-04-21T22:01:40.062Z,14.10
2023-04-21T22:04:07.726Z,14.00
2023-04-21T22:06:36.051Z,14.00
2023-04-21T22:09:04.982Z,14.00
2023-04-21T22:11:32.454Z,13.80
2023-04-21T22:14:11.017Z,13.80
2023-04-21T22:16:42.914Z,13.70
2023-04-21T22:19:10.555Z,13.70
2023-04-21T22:21:38.288Z,13.80
2023-04-21T22:24:06.058Z,13.80
2023-04-21T22:26:33.426Z,13.80
2023-04-21T22:29:00.865Z,13.80
2023-04-21T22:31:28.436Z,13.80
2023-04-21T22:33:56.025Z,13.80
2023-04-21T22:36:23.708Z,13.80
2023-04-21T22:38:51.152Z,13.80
2023-04-21T22:41:18.679Z,13.70
2023-04-21T22:44:11.075Z,13.70
2023-04-21T22:46:38.653Z,13.70
2023-04-21T22:49:06.146Z,13.60
2023-04-21T22:51:33.610Z,13.70
2023-04-21T22:54:01.081Z,13.60
2023-04-21T22:56:29.614Z,13.60
2023-04-21T22:58:57.195Z,13.60
2023-04-21T23:01:24.844Z,13.60
2023-04-21T23:03:52.464Z,13.60
2023-04-21T23:06:20.086Z,13.50
2023-04-21T23:08:47.447Z,13.40
2023-04-21T23:11:14.914Z,13.40
2023-04-21T23:13:42.362Z,13.40
2023-04-21T23:16:09.755Z,13.40
2023-04-21T23:18:37.162Z,13.30
2023-04-21T23:21:04.553Z,13.40
2023-04-21T23:23:31.996Z,13.40
2023-04-21T23:26:01.056Z,13.40
2023-04-21T23:28:28.678Z,13.40
2023-04-21T23:30:56.067Z,13.40
2023-04-21T23:33:23.656Z,13.50
2023-04-21T23:35:52.462Z,13.40
2023-04-21T23:38:19.838Z,13.50
2023-04-21T23:40:47.225Z,13.40
2023-04-21T23:43:14.727Z,13.40
2023-04-21T23:45:42.228Z,13.40
2023-04-21T23:48:09.685Z,13.30
2023-04-21T23:50:37.360Z,13.30
2023-04-21T23:53:04.953Z,13.30
2023-04-21T23:55:32.377Z,13.30
2023-04-21T23:57:59.756Z,13.40
